Hovedside
METAR-TAF:

METAR-TAF

Lufthavner :

Comiso, Italia

breddegrad: 36-59-30N, lengdegrad: 14-36-25E, høyde over havet: 190 m

Gjeldene værobservasjon

Denne rapporten ble laget for 39 minutter siden, klokken 19:50 UTC
Vind 4 kt fra skiftende retning
Temperatur 4°C
Luftfuktighet 87%
Trykk 1024 hPa
Sikt 10 km eller mer
ingen skyer under 1500 m og ingen bygeskyer

METAR: LICB 181950Z VRB04KT CAVOK 04/02 Q1024

Tid: 21:29 (20:29 UTC)

Varsel

Denne rapporten ble laget for 3 timer og 29 minutter siden, klokken 17:00 UTC
Varsel gyldig fra 18. klokken 18 UTC til 19. klokken 03 UTC
Vind 5 kt fra skiftende retning
Sikt 10 km eller mer
ingen skyer under 1500 m og ingen bygeskyer

TAF: LICB 181700Z 1818/1903 VRB05KT CAVOK

Værobservasjoner og værvarsel for over 4000 flyplasser (METAR- og TAF-rapporter).

Tilgjengelige stasjoner er representert av de røde og gule prikkene på kartet.

Hold musepekeren over prikken for å se navnet på stasjonen.

Klikk så for å se værobservasjoner og -varsler.

For å forandre kartet kan du klikke på den grønne knappen med svart kryss for å zoome inn, på den grønne knappen med strek for å zoome ut, eller på de grønne pilene for å se tilstøtende kart.


METAR-TAF: